createdAt,value
2023-03-06T00:03:22.406Z,80.89
2023-03-06T00:07:29.943Z,80.92
2023-03-06T00:11:40.262Z,80.71
2023-03-06T00:15:49.914Z,80.77
2023-03-06T00:19:59.460Z,80.66
2023-03-06T00:24:07.520Z,80.69
2023-03-06T00:28:16.194Z,80.58
2023-03-06T00:32:27.130Z,80.97
2023-03-06T00:36:36.177Z,80.95
2023-03-06T00:40:44.207Z,81.37
2023-03-06T00:44:52.404Z,81.55
2023-03-06T00:49:00.173Z,81.38
2023-03-06T00:53:08.283Z,81.71
2023-03-06T00:57:16.486Z,81.64
2023-03-06T01:01:24.700Z,81.73
2023-03-06T01:05:33.755Z,81.84
2023-03-06T01:09:43.582Z,82.04
2023-03-06T01:13:51.901Z,82.31
2023-03-06T01:18:00.044Z,82.45
2023-03-06T01:22:08.328Z,82.56
2023-03-06T01:26:16.277Z,82.44
2023-03-06T01:30:24.720Z,82.65
2023-03-06T01:34:32.182Z,82.69
2023-03-06T01:38:40.228Z,82.69
2023-03-06T01:42:49.278Z,82.90
2023-03-06T01:46:57.041Z,82.95
2023-03-06T01:51:04.820Z,82.96
2023-03-06T01:55:14.683Z,82.92
2023-03-06T01:59:23.642Z,82.89
2023-03-06T02:03:32.281Z,82.81
2023-03-06T02:07:40.529Z,82.73
2023-03-06T02:11:48.261Z,83.03
2023-03-06T02:15:55.954Z,82.99
2023-03-06T02:20:10.423Z,82.98
2023-03-06T02:24:28.846Z,83.40
2023-03-06T02:28:36.652Z,83.41
2023-03-06T02:32:44.793Z,83.34
2023-03-06T02:36:54.191Z,83.50
2023-03-06T02:41:02.244Z,83.39
2023-03-06T02:45:14.539Z,83.50
2023-03-06T02:49:22.726Z,83.65
2023-03-06T02:53:31.938Z,83.61
2023-03-06T02:57:39.499Z,83.79
2023-03-06T03:01:48.109Z,83.62
2023-03-06T03:05:56.040Z,83.77
2023-03-06T03:10:05.106Z,83.90
2023-03-06T03:14:17.154Z,83.92
2023-03-06T03:18:25.821Z,84.00
2023-03-06T03:22:34.465Z,84.11
2023-03-06T03:26:42.374Z,84.21
2023-03-06T03:30:50.189Z,84.32
2023-03-06T03:34:59.673Z,84.38
2023-03-06T03:39:07.307Z,84.50
2023-03-06T03:43:16.433Z,84.58
2023-03-06T03:47:25.265Z,84.63
2023-03-06T03:51:33.034Z,84.56
2023-03-06T03:55:41.002Z,84.79
2023-03-06T03:59:48.520Z,84.76
2023-03-06T04:03:57.099Z,84.65
2023-03-06T04:08:05.577Z,84.66
2023-03-06T04:12:13.328Z,84.68
2023-03-06T04:16:22.708Z,84.78
2023-03-06T04:20:30.796Z,84.72
2023-03-06T04:24:38.150Z,84.80
2023-03-06T04:28:45.726Z,84.77
2023-03-06T04:32:53.853Z,84.81
2023-03-06T04:37:03.913Z,84.78
2023-03-06T04:41:12.065Z,84.96
2023-03-06T04:45:21.156Z,85.07
2023-03-06T04:49:29.159Z,85.30
2023-03-06T04:53:36.929Z,85.29
2023-03-06T04:57:46.278Z,85.62
2023-03-06T05:01:54.386Z,85.44
2023-03-06T05:06:02.557Z,85.58
2023-03-06T05:10:15.746Z,85.34
2023-03-06T05:14:23.396Z,85.41
2023-03-06T05:18:32.181Z,85.52
2023-03-06T05:22:40.234Z,85.44
2023-03-06T05:26:47.687Z,85.44
2023-03-06T05:30:57.283Z,85.31
2023-03-06T05:35:05.859Z,85.26
2023-03-06T05:39:14.842Z,85.07
2023-03-06T05:43:22.732Z,85.16
2023-03-06T05:47:30.663Z,84.97
2023-03-06T05:51:41.841Z,84.84
2023-03-06T05:55:58.717Z,84.56
2023-03-06T06:00:11.840Z,84.33
2023-03-06T06:04:19.837Z,84.11
2023-03-06T06:08:29.610Z,83.71
2023-03-06T06:12:45.467Z,83.42
2023-03-06T06:16:58.052Z,83.14
2023-03-06T06:21:10.274Z,82.81
2023-03-06T06:25:19.672Z,82.73
2023-03-06T06:29:31.646Z,82.19
2023-03-06T06:33:46.014Z,81.92
2023-03-06T06:37:57.170Z,81.54
2023-03-06T06:42:26.598Z,81.57
2023-03-06T06:47:18.199Z,81.64
2023-03-06T06:51:03.065Z,81.61
2023-03-06T06:55:12.199Z,81.25
2023-03-06T06:59:20.586Z,80.92
2023-03-06T07:03:29.519Z,80.42
2023-03-06T07:07:40.630Z,80.43
2023-03-06T07:11:54.089Z,79.79
2023-03-06T07:16:01.682Z,79.71
2023-03-06T07:20:14.198Z,79.61
2023-03-06T07:24:21.912Z,79.22
2023-03-06T07:28:33.692Z,79.07
2023-03-06T07:32:51.686Z,78.48
2023-03-06T07:37:05.343Z,78.07
2023-03-06T07:41:14.069Z,77.79
2023-03-06T07:45:21.936Z,77.73
2023-03-06T07:49:31.986Z,77.54
2023-03-06T07:53:40.274Z,77.57
2023-03-06T07:57:52.871Z,77.66
2023-03-06T08:02:04.935Z,77.52
2023-03-06T08:06:17.812Z,76.85
2023-03-06T08:10:30.121Z,76.88
2023-03-06T08:14:38.720Z,76.40
2023-03-06T08:18:58.263Z,76.30
2023-03-06T08:23:05.666Z,76.08
2023-03-06T08:27:13.461Z,75.50
2023-03-06T08:31:28.531Z,75.80
2023-03-06T08:35:37.037Z,75.70
2023-03-06T08:39:52.441Z,75.38
2023-03-06T08:44:02.269Z,75.65
2023-03-06T08:48:11.470Z,75.44
2023-03-06T08:52:20.357Z,75.29
2023-03-06T08:56:31.719Z,75.07
2023-03-06T09:00:43.866Z,74.88
2023-03-06T09:04:54.185Z,74.90
2023-03-06T09:09:02.476Z,74.57
2023-03-06T09:13:12.389Z,74.16
2023-03-06T09:17:19.980Z,74.03
2023-03-06T09:21:29.635Z,73.88
2023-03-06T09:25:37.773Z,73.38
2023-03-06T09:29:45.893Z,73.34
2023-03-06T09:33:53.338Z,73.18
2023-03-06T09:38:01.077Z,73.12
2023-03-06T09:42:15.455Z,72.78
2023-03-06T09:46:32.834Z,72.15
2023-03-06T09:50:48.008Z,72.07
2023-03-06T09:54:59.248Z,72.46
2023-03-06T09:59:13.406Z,72.33
2023-03-06T10:03:29.012Z,72.24
2023-03-06T10:07:46.069Z,71.59
2023-03-06T10:11:58.269Z,71.83
2023-03-06T10:16:13.826Z,71.30
2023-03-06T10:20:25.707Z,71.61
2023-03-06T10:24:45.255Z,70.93
2023-03-06T10:29:00.199Z,70.28
2023-03-06T10:33:16.204Z,70.02
2023-03-06T10:37:24.990Z,69.73
2023-03-06T10:41:35.946Z,69.70
2023-03-06T10:45:52.267Z,68.91
2023-03-06T10:50:07.327Z,68.20
2023-03-06T10:54:22.623Z,67.24
2023-03-06T10:58:32.566Z,67.55
2023-03-06T11:02:41.692Z,66.98
2023-03-06T11:06:52.183Z,66.99
2023-03-06T11:11:04.733Z,66.92
2023-03-06T11:15:21.073Z,66.50
2023-03-06T11:19:33.102Z,66.19
2023-03-06T11:23:45.642Z,65.53
2023-03-06T11:27:58.596Z,65.49
2023-03-06T11:32:12.748Z,65.56
2023-03-06T11:36:27.160Z,64.40
2023-03-06T11:40:37.937Z,63.92
2023-03-06T11:44:57.547Z,64.21
2023-03-06T11:49:14.621Z,64.34
2023-03-06T11:53:25.222Z,63.48
2023-03-06T11:57:41.001Z,62.79
2023-03-06T12:01:53.929Z,62.92
2023-03-06T12:06:06.062Z,63.58
2023-03-06T12:10:19.270Z,63.03
2023-03-06T12:14:36.014Z,61.37
2023-03-06T12:18:54.289Z,61.17
2023-03-06T12:23:15.099Z,61.13
2023-03-06T12:27:30.183Z,61.35
2023-03-06T12:31:54.366Z,61.22
2023-03-06T12:36:10.507Z,61.12
2023-03-06T12:40:43.875Z,60.22
2023-03-06T12:45:08.590Z,60.07
2023-03-06T12:49:32.033Z,60.74
2023-03-06T12:53:43.480Z,60.41
2023-03-06T12:57:52.802Z,59.59
2023-03-06T13:02:18.231Z,58.94
2023-03-06T13:06:50.751Z,58.93
2023-03-06T13:11:30.496Z,59.48
2023-03-06T13:15:49.515Z,59.16
2023-03-06T13:20:34.942Z,58.98
2023-03-06T13:24:45.241Z,58.39
2023-03-06T13:28:54.266Z,59.93
2023-03-06T13:33:01.930Z,66.10
2023-03-06T13:37:43.475Z,68.55
2023-03-06T13:41:59.980Z,70.46
2023-03-06T13:46:26.299Z,72.19
2023-03-06T13:50:45.004Z,72.63
2023-03-06T13:55:00.345Z,72.77
2023-03-06T13:59:29.412Z,72.39
2023-03-06T14:04:10.153Z,72.58
2023-03-06T14:08:19.988Z,72.28
2023-03-06T14:12:30.564Z,72.34
2023-03-06T14:16:49.714Z,72.09
2023-03-06T14:21:02.037Z,72.04
2023-03-06T14:25:18.984Z,72.51
2023-03-06T14:29:28.940Z,72.29
2023-03-06T14:33:44.797Z,72.52
2023-03-06T14:37:53.906Z,72.04
2023-03-06T14:42:10.667Z,71.93
2023-03-06T14:46:22.823Z,71.64
2023-03-06T14:50:31.982Z,70.97
2023-03-06T14:54:39.652Z,71.12
2023-03-06T14:58:56.313Z,70.95
2023-03-06T15:03:04.664Z,70.27
2023-03-06T15:07:15.523Z,70.75
2023-03-06T15:11:23.562Z,71.35
2023-03-06T15:15:34.211Z,71.18
2023-03-06T15:19:42.986Z,71.18
2023-03-06T15:23:51.844Z,71.81
2023-03-06T15:28:01.309Z,72.32
2023-03-06T15:32:33.179Z,72.10
2023-03-06T15:36:42.495Z,72.10
2023-03-06T15:40:59.651Z,72.52
2023-03-06T15:45:17.073Z,72.65
2023-03-06T15:49:25.157Z,72.45
2023-03-06T15:53:32.592Z,72.50
2023-03-06T15:57:41.344Z,72.35
2023-03-06T16:01:49.081Z,71.96
2023-03-06T16:05:56.852Z,71.76
2023-03-06T16:10:05.269Z,72.12
2023-03-06T16:14:26.103Z,72.24
2023-03-06T16:18:34.305Z,72.49
2023-03-06T16:22:42.278Z,72.14
2023-03-06T16:26:52.746Z,71.99
2023-03-06T16:31:00.796Z,71.43
2023-03-06T16:35:09.673Z,71.07
2023-03-06T16:39:18.800Z,70.54
2023-03-06T16:43:26.509Z,70.08
2023-03-06T16:47:33.917Z,70.13
2023-03-06T16:51:41.814Z,70.27
2023-03-06T16:55:52.448Z,70.30
2023-03-06T17:00:11.492Z,70.96
2023-03-06T17:04:19.569Z,70.62
2023-03-06T17:08:27.389Z,71.14
2023-03-06T17:12:36.163Z,70.81
2023-03-06T17:16:46.723Z,71.52
2023-03-06T17:20:55.517Z,71.64
2023-03-06T17:25:04.972Z,71.35
2023-03-06T17:29:13.010Z,70.93
2023-03-06T17:33:20.700Z,70.75
2023-03-06T17:37:29.320Z,70.92
2023-03-06T17:41:37.406Z,70.89
2023-03-06T17:45:45.701Z,70.71
2023-03-06T17:49:53.615Z,70.71
2023-03-06T17:54:02.014Z,70.70
2023-03-06T17:58:12.317Z,70.65
2023-03-06T18:02:20.689Z,70.52
2023-03-06T18:06:30.542Z,71.10
2023-03-06T18:10:42.529Z,71.24
2023-03-06T18:14:50.930Z,71.37
2023-03-06T18:18:59.762Z,71.48
2023-03-06T18:23:07.889Z,71.41
2023-03-06T18:27:15.908Z,71.56
2023-03-06T18:31:25.153Z,71.26
2023-03-06T18:35:34.091Z,71.81
2023-03-06T18:39:41.627Z,71.87
2023-03-06T18:43:54.494Z,71.53
2023-03-06T18:48:05.332Z,71.72
2023-03-06T18:52:14.120Z,71.67
2023-03-06T18:56:24.122Z,71.38
2023-03-06T19:00:32.155Z,71.34
2023-03-06T19:04:40.749Z,71.26
2023-03-06T19:08:48.661Z,71.26
2023-03-06T19:12:56.926Z,71.39
2023-03-06T19:17:04.818Z,71.34
2023-03-06T19:21:14.758Z,71.77
2023-03-06T19:25:23.084Z,71.88
2023-03-06T19:29:32.718Z,72.30
2023-03-06T19:33:40.590Z,72.23
2023-03-06T19:37:48.522Z,72.42
2023-03-06T19:41:57.027Z,72.56
2023-03-06T19:46:05.154Z,72.80
2023-03-06T19:50:14.554Z,73.08
2023-03-06T19:54:25.162Z,74.12
2023-03-06T19:58:33.494Z,74.99
2023-03-06T20:02:41.704Z,75.02
2023-03-06T20:06:53.604Z,75.94
2023-03-06T20:11:01.231Z,76.27
2023-03-06T20:15:13.257Z,77.03
2023-03-06T20:19:22.826Z,78.09
2023-03-06T20:23:32.735Z,78.68
2023-03-06T20:27:41.086Z,79.52
2023-03-06T20:31:50.726Z,79.34
2023-03-06T20:35:59.088Z,79.64
2023-03-06T20:40:08.747Z,79.31
2023-03-06T20:44:18.348Z,79.53
2023-03-06T20:48:26.790Z,79.63
2023-03-06T20:52:35.198Z,79.79
2023-03-06T20:56:46.237Z,80.09
2023-03-06T21:00:53.705Z,80.29
2023-03-06T21:05:01.829Z,80.57
2023-03-06T21:09:10.177Z,80.76
2023-03-06T21:13:17.559Z,80.74
2023-03-06T21:17:26.036Z,80.87
2023-03-06T21:21:34.976Z,80.73
2023-03-06T21:25:50.569Z,80.95
2023-03-06T21:29:58.809Z,81.21
2023-03-06T21:34:06.905Z,81.51
2023-03-06T21:38:15.724Z,81.68
2023-03-06T21:42:23.577Z,81.56
2023-03-06T21:46:31.205Z,81.83
2023-03-06T21:50:39.409Z,82.00
2023-03-06T21:54:47.463Z,81.58
2023-03-06T21:58:55.871Z,81.58
2023-03-06T22:03:04.813Z,81.59
2023-03-06T22:07:12.364Z,81.59
2023-03-06T22:11:21.659Z,81.33
2023-03-06T22:15:29.661Z,81.20
2023-03-06T22:19:37.628Z,81.46
2023-03-06T22:23:45.685Z,81.34
2023-03-06T22:27:52.931Z,81.60
2023-03-06T22:32:00.636Z,81.91
2023-03-06T22:36:10.910Z,82.22
2023-03-06T22:40:19.545Z,82.35
2023-03-06T22:44:27.168Z,81.91
2023-03-06T22:48:36.290Z,81.92
2023-03-06T22:52:44.394Z,81.94
2023-03-06T22:56:53.201Z,82.00
2023-03-06T23:01:01.857Z,82.04
2023-03-06T23:05:11.363Z,81.82
2023-03-06T23:09:21.478Z,81.88
2023-03-06T23:13:29.160Z,81.96
2023-03-06T23:17:37.013Z,81.97
2023-03-06T23:21:45.763Z,81.71
2023-03-06T23:25:53.873Z,81.80
2023-03-06T23:30:01.997Z,81.82
2023-03-06T23:34:11.737Z,81.85
2023-03-06T23:38:19.758Z,81.74
2023-03-06T23:42:27.541Z,81.84
2023-03-06T23:46:34.917Z,81.67
2023-03-06T23:50:44.053Z,81.88
2023-03-06T23:54:53.060Z,81.85
2023-03-06T23:59:01.896Z,81.90
